Time;durP1;ratioP1;P1;durP2;ratioP2;P2;SDS_P1;SDS_P2;PMS_P1;PMS_P2;Temp;Humidity;BMP_temperature;BMP_pressure;BME280_temperature;BME280_humidity;BME280_pressure;Samples;Min_cycle;Max_cycle;Signal;HPM_P1;HPM_P2
2024/03/18 00:00:16;;;;;;;4.03;2.00;;;;;;;3.20;100.00;102108.84;6141177;23;20014;-75
2024/03/18 00:02:44;;;;;;;2.20;1.50;;;;;;;3.26;100.00;102102.00;6141982;23;20009;-76
2024/03/18 00:05:11;;;;;;;3.40;2.05;;;;;;;3.24;100.00;102106.63;6141528;23;20018;-75
2024/03/18 00:07:37;;;;;;;4.05;1.77;;;;;;;3.21;100.00;102099.09;6116858;23;20400;-75
2024/03/18 00:10:09;;;;;;;3.45;2.33;;;;;;;3.23;100.00;102102.34;6142142;23;20104;-74
2024/03/18 00:12:43;;;;;;;2.67;1.60;;;;;;;3.20;100.00;102100.09;6165907;23;20087;-74
2024/03/18 00:15:11;;;;;;;2.42;2.00;;;;;;;3.23;100.00;102086.47;6116009;23;20017;-74
2024/03/18 00:17:37;;;;;;;5.60;1.90;;;;;;;3.17;100.00;102097.81;6116961;23;20020;-75
2024/03/18 00:20:11;;;;;;;4.75;1.83;;;;;;;3.16;100.00;102098.81;6166271;23;20017;-75
2024/03/18 00:22:42;;;;;;;4.70;1.90;;;;;;;3.16;100.00;102096.16;6141662;23;20024;-74
2024/03/18 00:25:11;;;;;;;3.33;1.65;;;;;;;3.16;100.00;102098.81;6140973;23;20044;-73
2024/03/18 00:27:37;;;;;;;2.83;1.70;;;;;;;3.16;100.00;102094.34;6116515;23;20013;-74
2024/03/18 00:30:10;;;;;;;2.92;1.75;;;;;;;3.10;100.00;102088.97;6140784;23;20068;-73
2024/03/18 00:32:36;;;;;;;2.17;1.50;;;;;;;3.08;100.00;102091.81;6142485;23;20014;-74
2024/03/18 00:35:01;;;;;;;3.03;1.60;;;;;;;3.04;100.00;102089.72;6143952;23;20021;-75
2024/03/18 00:37:27;;;;;;;3.28;1.98;;;;;;;3.05;100.00;102086.06;6167442;23;20498;-75
2024/03/18 00:39:53;;;;;;;2.83;1.60;;;;;;;3.03;100.00;102082.78;6119695;23;20072;-74
2024/03/18 00:42:18;;;;;;;2.83;2.10;;;;;;;3.02;100.00;102076.69;6143956;23;20021;-74
2024/03/18 00:44:44;;;;;;;3.40;1.58;;;;;;;2.96;100.00;102078.25;6143356;23;20733;-75
2024/03/18 00:47:11;;;;;;;2.97;2.03;;;;;;;2.95;100.00;102066.03;6142355;23;20393;-74
2024/03/18 00:49:36;;;;;;;;;;;;;;;2.99;100.00;102067.28;6143889;23;20017;-74
2024/03/18 00:52:02;;;;;;;2.88;1.60;;;;;;;2.92;100.00;102065.59;6142665;23;20545;-76
2024/03/18 00:54:28;;;;;;;3.42;1.90;;;;;;;2.92;100.00;102060.31;6117881;23;20024;-74
2024/03/18 00:56:53;;;;;;;2.72;1.50;;;;;;;2.89;100.00;102066.75;6142605;23;20088;-76
2024/03/18 00:59:20;;;;;;;5.00;2.30;;;;;;;2.84;100.00;102069.13;6097889;23;20013;-74
2024/03/18 01:01:47;;;;;;;3.30;2.03;;;;;;;2.85;100.00;102057.56;6148678;23;20041;-74
2024/03/18 01:04:13;;;;;;;2.33;1.77;;;;;;;2.83;100.00;102061.41;6122886;23;20021;-76
2024/03/18 01:06:38;;;;;;;3.03;1.70;;;;;;;2.77;100.00;102057.66;6147933;23;20017;-75
2024/03/18 01:09:04;;;;;;;2.88;2.03;;;;;;;2.72;100.00;102058.25;6123162;23;20021;-74
2024/03/18 01:11:30;;;;;;;4.88;2.15;;;;;;;2.71;100.00;102063.72;6174834;23;20021;-75
2024/03/18 01:13:56;;;;;;;2.17;1.67;;;;;;;2.67;100.00;102057.97;6147625;23;20020;-75
2024/03/18 01:16:25;;;;;;;2.75;2.13;;;;;;;2.68;100.00;102061.44;6147858;23;20009;-75
2024/03/18 01:18:52;;;;;;;4.15;1.80;;;;;;;2.67;100.00;102057.16;6123058;23;20395;-75
2024/03/18 01:21:18;;;;;;;3.05;1.90;;;;;;;2.69;100.00;102055.94;6146921;23;20100;-74
2024/03/18 01:23:48;;;;;;;2.58;1.80;;;;;;;2.73;100.00;102067.00;6147963;23;20537;-74
2024/03/18 01:26:14;;;;;;;2.65;1.83;;;;;;;2.64;100.00;102060.16;6173597;23;20016;-74
2024/03/18 01:28:40;;;;;;;3.08;1.75;;;;;;;2.63;100.00;102056.69;6174124;23;20023;-74
2024/03/18 01:31:06;;;;;;;;;;;;;;;2.57;100.00;102062.72;6101171;23;20052;-74
2024/03/18 01:33:32;;;;;;;3.67;2.05;;;;;;;2.52;100.00;102062.47;6172675;23;19912;-74
2024/03/18 01:35:58;;;;;;;2.42;1.50;;;;;;;2.52;100.00;102061.63;6149388;23;20052;-74
2024/03/18 01:38:25;;;;;;;2.67;1.70;;;;;;;2.54;100.00;102067.56;6147369;23;20013;-74
2024/03/18 01:40:52;;;;;;;2.78;1.60;;;;;;;2.42;100.00;102065.38;6148317;23;20092;-73
2024/03/18 01:43:19;;;;;;;3.17;1.85;;;;;;;2.47;100.00;102051.59;6147788;23;20063;-74
2024/03/18 01:45:46;;;;;;;2.70;1.60;;;;;;;2.46;100.00;102060.56;6148242;23;20020;-75
2024/03/18 01:48:12;;;;;;;5.20;1.77;;;;;;;2.39;100.00;102049.88;6146853;23;20611;-73
2024/03/18 01:50:41;;;;;;;4.07;1.80;;;;;;;2.36;100.00;102054.69;6148798;23;20122;-74
2024/03/18 01:53:10;;;;;;;3.13;1.70;;;;;;;2.33;100.00;102044.50;6146792;23;20021;-74
2024/03/18 01:55:40;;;;;;;3.65;1.60;;;;;;;2.32;100.00;102038.41;6123026;23;20020;-74
2024/03/18 01:58:07;;;;;;;4.40;2.30;;;;;;;2.32;100.00;102043.69;6146449;23;20020;-74
2024/03/18 02:00:35;;;;;;;2.72;1.70;;;;;;;2.26;100.00;102038.31;6172291;23;20013;-75
2024/03/18 02:03:06;;;;;;;3.40;1.80;;;;;;;2.28;100.00;102023.91;6146510;23;20071;-74
2024/03/18 02:05:33;;;;;;;4.70;1.60;;;;;;;2.28;100.00;102028.38;6123018;23;20025;-74
2024/03/18 02:07:59;;;;;;;3.20;1.70;;;;;;;2.23;100.00;102018.34;6171367;23;20013;-74
2024/03/18 02:10:25;;;;;;;2.42;1.95;;;;;;;2.23;100.00;102023.63;6146839;23;20063;-74
2024/03/18 02:12:52;;;;;;;2.97;1.40;;;;;;;2.15;100.00;102021.91;6146554;23;20595;-74
2024/03/18 02:15:19;;;;;;;2.55;2.03;;;;;;;2.13;100.00;102021.25;6122010;23;20013;-74
2024/03/18 02:17:45;;;;;;;2.50;1.55;;;;;;;2.09;100.00;102012.06;6122501;23;20033;-74
2024/03/18 02:20:12;;;;;;;3.45;1.60;;;;;;;2.08;100.00;102009.59;6145840;23;20493;-73
2024/03/18 02:22:38;;;;;;;;;;;;;;;2.02;100.00;102008.50;6121929;23;20784;-74
2024/03/18 02:25:04;;;;;;;2.85;1.30;;;;;;;2.04;100.00;101997.78;6146567;23;20347;-74
2024/03/18 02:27:30;;;;;;;3.10;2.33;;;;;;;2.01;100.00;102011.31;6094416;23;20098;-73
2024/03/18 02:29:56;;;;;;;2.25;1.40;;;;;;;2.00;100.00;102001.75;6123165;23;20412;-77
2024/03/18 02:32:22;;;;;;;3.47;1.63;;;;;;;1.96;100.00;101997.84;6172883;23;20105;-73
2024/03/18 02:34:48;;;;;;;4.22;1.75;;;;;;;1.94;100.00;102002.50;6121668;23;20392;-74
2024/03/18 02:37:13;;;;;;;3.97;2.05;;;;;;;1.86;100.00;102001.56;6096888;23;20016;-75
2024/03/18 02:39:39;;;;;;;2.80;1.50;;;;;;;1.87;100.00;101997.94;6145360;23;20173;-74
2024/03/18 02:42:06;;;;;;;2.03;1.52;;;;;;;1.88;100.00;101991.63;6147624;23;20025;-75
2024/03/18 02:44:32;;;;;;;2.70;1.80;;;;;;;1.87;100.00;101997.94;6121310;23;20027;-74
2024/03/18 02:46:58;;;;;;;2.30;1.40;;;;;;;1.84;100.00;101987.75;6146873;23;20113;-74
2024/03/18 02:49:24;;;;;;;2.25;1.63;;;;;;;1.84;100.00;101993.03;6145830;23;20359;-74
2024/03/18 02:51:50;;;;;;;2.10;1.40;;;;;;;1.82;100.00;101981.78;6122441;23;20411;-74
2024/03/18 02:54:15;;;;;;;2.65;1.55;;;;;;;1.79;100.00;101984.81;6146172;23;20036;-74
2024/03/18 02:56:42;;;;;;;;;;;;;;;1.81;100.00;101979.34;6147196;23;20027;-76
2024/03/18 02:59:08;;;;;;;2.92;1.63;;;;;;;1.85;100.00;101983.28;6116345;23;19974;-74
2024/03/18 03:01:34;;;;;;;3.58;1.92;;;;;;;1.81;100.00;101982.78;6141453;23;20523;-74
2024/03/18 03:04:00;;;;;;;2.70;1.50;;;;;;;1.78;100.00;101977.88;6142157;23;20382;-73
2024/03/18 03:06:26;;;;;;;2.47;1.67;;;;;;;1.72;100.00;101973.34;6116946;23;20021;-74
2024/03/18 03:08:52;;;;;;;2.30;1.58;;;;;;;1.75;100.00;101972.94;6067959;23;20087;-74
2024/03/18 03:11:18;;;;;;;3.42;1.70;;;;;;;1.75;100.00;101962.38;6092753;23;20367;-74
2024/03/18 03:13:43;;;;;;;3.55;1.80;;;;;;;1.70;100.00;101967.41;6092396;23;20017;-73
2024/03/18 03:16:10;;;;;;;3.72;1.60;;;;;;;1.73;100.00;101961.75;6117708;23;20018;-75
2024/03/18 03:18:36;;;;;;;2.40;1.30;;;;;;;1.71;100.00;101965.59;6139800;23;20331;-75
2024/03/18 03:21:05;;;;;;;2.05;1.30;;;;;;;1.73;100.00;101958.31;6142203;23;20140;-75
2024/03/18 03:23:35;;;;;;;2.22;1.70;;;;;;;1.72;100.00;101954.03;6092187;23;20021;-74
2024/03/18 03:26:02;;;;;;;2.92;1.40;;;;;;;1.73;100.00;101958.31;6142107;23;20028;-75
2024/03/18 03:28:29;;;;;;;2.15;1.60;;;;;;;1.73;100.00;101961.75;6092070;23;20049;-73
2024/03/18 03:31:02;;;;;;;3.35;1.40;;;;;;;1.67;100.00;101959.84;6142931;23;20051;-74
2024/03/18 03:33:28;;;;;;;2.85;1.98;;;;;;;1.66;100.00;101950.28;6142631;23;20041;-73
2024/03/18 03:35:57;;;;;;;5.28;1.55;;;;;;;1.68;100.00;101945.63;6118265;23;20483;-74
2024/03/18 03:38:24;;;;;;;3.28;1.75;;;;;;;1.66;100.00;101952.94;6140405;23;20455;-74
2024/03/18 03:40:53;;;;;;;3.53;1.30;;;;;;;1.68;100.00;101945.63;6142583;23;20032;-75
2024/03/18 03:43:20;;;;;;;2.67;1.83;;;;;;;1.69;100.00;101952.53;6091699;23;20021;-74
2024/03/18 03:46:06;;;;;;;4.40;1.42;;;;;;;1.67;100.00;101945.81;6092225;23;20017;-74
2024/03/18 03:48:32;;;;;;;2.83;1.63;;;;;;;1.71;100.00;101950.56;6139516;23;20152;-74
2024/03/18 03:50:58;;;;;;;1.77;1.25;;;;;;;1.71;100.00;101947.94;6141700;23;20447;-75
2024/03/18 03:53:25;;;;;;;2.45;1.80;;;;;;;1.71;100.00;101941.81;6142949;23;20014;-73
2024/03/18 03:55:52;;;;;;;3.80;1.90;;;;;;;1.68;100.00;101940.34;6144530;23;20017;-74
2024/03/18 03:58:19;;;;;;;2.95;1.85;;;;;;;1.68;100.00;101937.72;6117117;23;20020;-74
2024/03/18 04:00:45;;;;;;;3.28;1.80;;;;;;;1.69;100.00;101934.06;6120632;23;20083;-74
2024/03/18 04:03:17;;;;;;;2.42;1.83;;;;;;;1.68;100.00;101937.72;6120183;23;20039;-74
2024/03/18 04:05:44;;;;;;;3.72;1.90;;;;;;;1.70;100.00;101929.63;6144103;23;20013;-74
2024/03/18 04:08:10;;;;;;;2.95;1.88;;;;;;;1.70;100.00;101932.28;6120065;23;20546;-74
2024/03/18 04:10:36;;;;;;;3.50;2.58;;;;;;;1.70;100.00;101930.44;6145576;23;20026;-74
2024/03/18 04:13:03;;;;;;;2.30;1.70;;;;;;;1.69;100.00;101926.13;6144982;23;20028;-74
2024/03/18 04:15:29;;;;;;;3.50;2.05;;;;;;;1.66;100.00;101930.97;6121270;23;20080;-74
2024/03/18 04:17:55;;;;;;;3.85;1.98;;;;;;;1.67;100.00;101930.78;6094124;23;20021;-74
2024/03/18 04:20:21;;;;;;;3.33;1.90;;;;;;;1.68;100.00;101931.59;6121282;23;20017;-77
2024/03/18 04:22:50;;;;;;;3.45;2.30;;;;;;;1.66;100.00;101926.50;6145946;23;20075;-74
2024/03/18 04:25:17;;;;;;;5.05;1.98;;;;;;;1.62;100.00;101925.22;6121478;23;20013;-73
2024/03/18 04:27:43;;;;;;;2.97;1.65;;;;;;;1.63;100.00;101926.91;6122695;23;20363;-73
2024/03/18 04:30:18;;;;;;;3.58;1.92;;;;;;;1.63;100.00;101930.34;6100183;23;20025;-75
2024/03/18 04:32:48;;;;;;;5.07;2.25;;;;;;;1.61;100.00;101928.88;6097502;23;20021;-74
2024/03/18 04:35:14;;;;;;;2.83;1.83;;;;;;;1.62;100.00;101925.22;6149301;23;20533;-73
2024/03/18 04:37:46;;;;;;;3.03;2.20;;;;;;;1.60;100.00;101927.25;6172657;23;20016;-72
2024/03/18 04:40:17;;;;;;;3.78;2.17;;;;;;;1.58;100.00;101919.50;6100427;23;20059;-73
2024/03/18 04:42:44;;;;;;;2.92;2.20;;;;;;;1.53;100.00;101921.88;6098262;23;20009;-74
2024/03/18 04:45:11;;;;;;;4.30;2.47;;;;;;;1.57;100.00;101917.06;6123637;23;20016;-73
2024/03/18 04:47:43;;;;;;;4.38;2.33;;;;;;;1.58;100.00;101918.69;6148479;23;20017;-74
2024/03/18 04:50:14;;;;;;;3.90;2.38;;;;;;;1.53;100.00;101910.47;6149439;23;20051;-75
2024/03/18 04:52:41;;;;;;;4.60;2.42;;;;;;;1.55;100.00;101916.38;6148451;23;20207;-74
2024/03/18 04:55:08;;;;;;;5.20;2.40;;;;;;;1.54;100.00;101917.41;6123737;23;20017;-75
2024/03/18 04:57:34;;;;;;;2.97;2.20;;;;;;;1.51;100.00;101907.22;6146303;23;20009;-74
2024/03/18 05:00:00;;;;;;;5.15;2.50;;;;;;;1.54;100.00;101901.56;6064958;23;1308785;-74
2024/03/18 05:02:25;;;;;;;4.75;2.60;;;;;;;1.53;100.00;101905.19;6095770;23;20017;-74
2024/03/18 05:04:52;;;;;;;6.65;2.20;;;;;;;1.49;100.00;101903.91;6095859;23;20412;-77
2024/03/18 05:07:18;;;;;;;3.63;2.45;;;;;;;1.49;100.00;101902.13;6144631;23;20025;-73
2024/03/18 05:09:44;;;;;;;3.58;1.92;;;;;;;1.47;100.00;101900.66;6145416;23;20630;-74
2024/03/18 05:12:11;;;;;;;;;;;;;;;1.52;100.00;101907.03;6147264;23;20017;-74
2024/03/18 05:14:37;;;;;;;5.32;2.83;;;;;;;1.49;100.00;101910.03;6119862;23;19912;-74
2024/03/18 05:17:02;;;;;;;;;;;;;;;1.52;100.00;101907.03;6145972;23;20444;-74
2024/03/18 05:19:28;;;;;;;3.72;2.35;;;;;;;1.47;100.00;101900.66;6144790;23;19913;-73
2024/03/18 05:21:54;;;;;;;3.47;1.98;;;;;;;1.47;100.00;101905.91;6144529;23;20132;-74
2024/03/18 05:24:20;;;;;;;4.95;2.42;;;;;;;1.46;100.00;101899.81;6096396;23;20024;-74
2024/03/18 05:26:45;;;;;;;5.28;2.50;;;;;;;1.51;100.00;101908.03;6144177;23;20471;-73
2024/03/18 05:29:11;;;;;;;7.75;2.50;;;;;;;1.47;100.00;101911.19;6144773;23;20029;-73
2024/03/18 05:31:37;;;;;;;4.90;2.60;;;;;;;1.42;100.00;101905.63;6120290;23;20017;-74
2024/03/18 05:34:05;;;;;;;3.78;2.22;;;;;;;1.45;100.00;101910.56;6145057;23;20487;-73
2024/03/18 05:36:32;;;;;;;5.38;2.88;;;;;;;1.44;100.00;101907.13;6120403;23;20238;-74
2024/03/18 05:38:58;;;;;;;4.10;2.53;;;;;;;1.49;100.00;101904.75;6144139;23;20016;-74
2024/03/18 05:41:24;;;;;;;4.47;2.20;;;;;;;1.50;100.00;101900.28;6144695;23;20531;-74
2024/03/18 05:43:50;;;;;;;4.60;2.40;;;;;;;1.51;100.00;101892.19;6144616;23;20036;-74
2024/03/18 05:46:17;;;;;;;5.18;2.40;;;;;;;1.54;100.00;101893.63;6145257;23;20048;-74
2024/03/18 05:48:43;;;;;;;5.53;2.90;;;;;;;1.54;100.00;101891.81;6143958;23;20080;-73
2024/03/18 05:51:09;;;;;;;5.22;2.65;;;;;;;1.61;100.00;101899.81;6145056;23;20017;-74
2024/03/18 05:53:35;;;;;;;4.25;2.63;;;;;;;1.57;100.00;101902.03;6119610;23;20468;-74
2024/03/18 05:56:02;;;;;;;6.60;2.55;;;;;;;1.59;100.00;101888.63;6145375;23;20009;-74
2024/03/18 05:58:29;;;;;;;4.93;2.35;;;;;;;1.67;100.00;101891.19;6171194;23;20037;-74
2024/03/18 06:00:54;;;;;;;4.50;2.40;;;;;;;1.67;100.00;101899.09;6149738;23;20091;-73
2024/03/18 06:03:20;;;;;;;3.95;2.25;;;;;;;1.64;100.00;101899.47;6124883;23;20021;-73
2024/03/18 06:05:46;;;;;;;4.38;2.60;;;;;;;1.68;100.00;101906.03;6148626;23;20017;-74
2024/03/18 06:08:11;;;;;;;4.10;2.70;;;;;;;1.65;100.00;101898.47;6124671;23;20489;-74
2024/03/18 06:10:37;;;;;;;5.53;2.72;;;;;;;1.68;100.00;101898.09;6124596;23;20024;-75
2024/03/18 06:13:03;;;;;;;6.00;2.58;;;;;;;1.64;100.00;101902.13;6124824;23;20044;-73
2024/03/18 06:15:28;;;;;;;4.63;2.55;;;;;;;1.71;100.00;101907.50;6149646;23;20016;-74
2024/03/18 06:17:54;;;;;;;3.92;2.45;;;;;;;1.71;100.00;101902.22;6124425;23;20447;-74
2024/03/18 06:20:21;;;;;;;5.13;2.85;;;;;;;1.71;100.00;101897.75;6150042;23;20020;-74
2024/03/18 06:22:49;;;;;;;4.90;2.17;;;;;;;1.76;100.00;101902.47;6099354;23;20478;-74
2024/03/18 06:27:58;;;;;;;4.10;2.30;;;;;;;1.72;100.00;101903.84;6174241;23;20048;-75
2024/03/18 06:30:24;;;;;;;6.60;3.35;;;;;;;1.75;100.00;101914.84;6123811;23;20029;-73
2024/03/18 06:32:49;;;;;;;6.47;2.88;;;;;;;1.72;100.00;101895.94;6124676;23;20569;-75
2024/03/18 06:35:15;;;;;;;5.45;3.05;;;;;;;1.73;100.00;101905.47;6148561;23;20075;-74
2024/03/18 06:37:41;;;;;;;7.80;3.10;;;;;;;1.76;100.00;101900.66;6172013;23;20035;-74
2024/03/18 06:40:07;;;;;;;5.47;2.75;;;;;;;1.76;100.00;101887.47;6175053;23;20412;-74
2024/03/18 06:42:33;;;;;;;4.88;2.90;;;;;;;1.73;100.00;101887.81;6148625;23;20036;-74
2024/03/18 06:44:59;;;;;;;6.07;2.65;;;;;;;1.77;100.00;101883.00;6149345;23;20012;-73
2024/03/18 06:47:26;;;;;;;6.75;2.72;;;;;;;1.83;100.00;101890.16;6148947;23;20012;-74
2024/03/18 06:49:52;;;;;;;5.78;2.92;;;;;;;1.87;100.00;101888.81;6125122;23;20113;-75
2024/03/18 06:52:18;;;;;;;4.85;2.63;;;;;;;1.93;100.00;101885.44;6148609;23;20029;-74
2024/03/18 06:54:44;;;;;;;5.75;3.28;;;;;;;1.97;100.00;101888.53;6148038;23;20012;-75
2024/03/18 06:57:10;;;;;;;5.38;3.45;;;;;;;2.07;100.00;101894.34;6123635;23;20047;-74
2024/03/18 06:59:36;;;;;;;4.88;2.90;;;;;;;1.95;100.00;101893.16;6143726;23;20022;-75
2024/03/18 07:02:03;;;;;;;6.05;2.80;;;;;;;2.01;100.00;101889.78;6142946;23;20044;-75
2024/03/18 07:04:29;;;;;;;5.43;2.60;;;;;;;2.05;100.00;101885.78;6145534;23;20020;-73
2024/03/18 07:06:55;;;;;;;8.10;3.47;;;;;;;2.01;100.00;101881.84;6142456;23;20025;-74
2024/03/18 07:09:21;;;;;;;5.45;3.00;;;;;;;1.94;100.00;101889.69;6142990;23;20005;-74
2024/03/18 07:11:46;;;;;;;5.10;3.00;;;;;;;1.90;100.00;101886.63;6118164;23;20029;-75
2024/03/18 07:14:14;;;;;;;7.20;3.22;;;;;;;1.93;100.00;101885.44;6145664;23;20009;-74
2024/03/18 07:16:40;;;;;;;6.38;3.65;;;;;;;1.90;100.00;101886.63;6118950;23;20199;-74
2024/03/18 07:19:06;;;;;;;7.18;3.03;;;;;;;1.97;100.00;101880.59;6118717;23;20459;-75
2024/03/18 07:21:31;;;;;;;7.05;3.20;;;;;;;2.00;100.00;101878.41;6143146;23;20096;-74
2024/03/18 07:24:00;;;;;;;6.43;3.55;;;;;;;2.02;100.00;101888.78;6143039;23;20471;-75
2024/03/18 07:26:25;;;;;;;8.10;3.35;;;;;;;2.11;100.00;101882.41;6144430;23;20103;-75
2024/03/18 07:28:51;;;;;;;8.90;4.35;;;;;;;2.04;100.00;101881.50;6141603;23;20010;-74
2024/03/18 07:31:17;;;;;;;5.93;3.30;;;;;;;2.00;100.00;101881.03;6143616;23;20021;-75
2024/03/18 07:33:45;;;;;;;6.75;3.38;;;;;;;2.03;100.00;101882.47;6094245;23;20009;-75
2024/03/18 07:36:11;;;;;;;5.30;3.40;;;;;;;2.12;100.00;101878.75;6144351;23;20028;-74
2024/03/18 07:38:37;;;;;;;5.50;3.35;;;;;;;2.19;100.00;101869.06;6142232;23;20010;-75
2024/03/18 07:41:02;;;;;;;6.65;3.13;;;;;;;2.27;100.00;101876.88;6119320;23;20091;-75
2024/03/18 07:43:28;;;;;;;6.45;3.65;;;;;;;2.33;100.00;101864.75;6094483;23;20587;-74
2024/03/18 07:45:54;;;;;;;8.10;3.88;;;;;;;2.31;100.00;101878.16;6142285;23;20048;-75
2024/03/18 07:48:20;;;;;;;5.65;3.13;;;;;;;2.40;100.00;101865.63;6141691;23;20033;-74
2024/03/18 07:50:53;;;;;;;;;;;;;;;2.42;100.00;101868.91;6143304;23;20026;-73
2024/03/18 07:53:19;;;;;;;6.55;3.25;;;;;;;2.50;100.00;101870.59;6117635;23;19940;-76
2024/03/18 07:55:45;;;;;;;6.75;3.53;;;;;;;2.57;100.00;101869.66;6117338;23;20013;-74
2024/03/18 07:58:10;;;;;;;5.70;3.17;;;;;;;2.67;100.00;101861.41;6143819;23;20017;-76
2024/03/18 08:00:36;;;;;;;5.13;3.28;;;;;;;2.67;100.00;101866.69;6144940;23;20059;-75
2024/03/18 08:03:02;;;;;;;7.70;3.65;;;;;;;2.69;100.00;101867.31;6096410;23;20026;-77
2024/03/18 08:05:28;;;;;;;5.53;3.13;;;;;;;2.68;100.00;101871.78;6121058;23;20018;-75
2024/03/18 08:07:53;;;;;;;7.20;3.88;;;;;;;2.63;100.00;101863.59;6119071;23;20134;-74
2024/03/18 08:10:20;;;;;;;6.95;3.17;;;;;;;2.77;100.00;101867.19;6144638;23;20523;-75
2024/03/18 08:12:45;;;;;;;6.15;3.40;;;;;;;2.82;100.00;101864.78;6143945;23;20071;-76
2024/03/18 08:15:15;;;;;;;6.03;3.42;;;;;;;2.87;100.00;101859.75;6119558;23;20017;-76
2024/03/18 08:17:42;;;;;;;6.88;3.35;;;;;;;2.82;100.00;101867.44;6167620;23;20456;-76
2024/03/18 08:20:09;;;;;;;6.35;3.35;;;;;;;2.91;100.00;101873.41;6144960;23;20009;-76
2024/03/18 08:22:35;;;;;;;4.75;3.05;;;;;;;2.85;100.00;101864.44;6119129;23;20018;-76
2024/03/18 08:25:02;;;;;;;6.47;3.67;;;;;;;2.87;100.00;101857.09;6144001;23;20021;-76
2024/03/18 08:27:32;;;;;;;5.70;3.15;;;;;;;2.97;100.00;101873.47;6142473;23;20040;-76
2024/03/18 08:29:58;;;;;;;7.03;3.00;;;;;;;3.00;100.00;101856.41;6168948;23;20010;-75
2024/03/18 08:32:24;;;;;;;9.18;4.38;;;;;;;3.01;100.00;101864.13;6145541;23;20017;-77
2024/03/18 08:34:49;;;;;;;7.78;4.70;;;;;;;3.08;100.00;101873.97;6119254;23;20017;-76
2024/03/18 08:37:15;;;;;;;8.30;3.67;;;;;;;3.17;100.00;101873.63;6144110;23;20020;-75
2024/03/18 08:39:40;;;;;;;6.28;3.22;;;;;;;3.17;100.00;101878.09;6096349;23;20539;-77
2024/03/18 08:42:06;;;;;;;7.55;3.72;;;;;;;3.13;100.00;101880.31;6120072;23;20017;-77
2024/03/18 08:44:32;;;;;;;6.65;3.80;;;;;;;3.20;100.00;101875.06;6120481;23;20026;-76
2024/03/18 08:46:58;;;;;;;6.85;3.22;;;;;;;3.21;100.00;101864.28;6120124;23;20060;-78
2024/03/18 08:49:24;;;;;;;6.78;3.22;;;;;;;3.30;100.00;101862.31;6125495;23;20021;-76
2024/03/18 08:51:49;;;;;;;7.47;4.20;;;;;;;3.47;100.00;101874.22;6094743;23;20017;-76
2024/03/18 08:54:16;;;;;;;6.57;3.80;;;;;;;3.47;100.00;101868.13;6096910;23;20051;-76
2024/03/18 08:56:42;;;;;;;7.05;3.88;;;;;;;3.48;100.00;101875.88;6169220;23;20013;-76
2024/03/18 08:59:09;;;;;;;6.70;3.83;;;;;;;3.45;100.00;101870.94;6144347;23;20436;-77
2024/03/18 09:01:36;;;;;;;5.75;3.28;;;;;;;3.44;100.00;101863.19;6145647;23;20021;-79
2024/03/18 09:04:05;;;;;;;6.90;3.75;;;;;;;3.43;100.00;101866.88;6144817;23;20029;-74
2024/03/18 09:06:33;;;;;;;6.70;3.58;;;;;;;3.56;100.00;101865.09;6121178;23;20017;-76
2024/03/18 09:08:59;;;;;;;7.40;3.25;;;;;;;3.64;100.00;101858.00;6119479;23;20465;-79
2024/03/18 09:11:25;;;;;;;6.40;3.20;;;;;;;3.69;100.00;101855.59;6121123;23;20127;-78
2024/03/18 09:13:51;;;;;;;5.75;3.60;;;;;;;3.66;100.00;101861.28;6144256;23;20017;-76
2024/03/18 09:16:17;;;;;;;7.03;3.50;;;;;;;3.78;100.00;101860.53;6145340;23;20040;-76
2024/03/18 09:18:42;;;;;;;7.32;3.35;;;;;;;3.87;100.00;101855.88;6168712;23;20543;-76
2024/03/18 09:21:08;;;;;;;6.75;4.03;;;;;;;3.95;100.00;101863.66;6121137;23;20023;-76
2024/03/18 09:23:34;;;;;;;6.57;3.50;;;;;;;3.97;100.00;101866.09;6144134;23;20037;-76
2024/03/18 09:26:00;;;;;;;7.82;3.83;;;;;;;3.91;100.00;101865.06;6144840;23;20670;-75
2024/03/18 09:28:27;;;;;;;6.38;3.10;;;;;;;3.96;100.00;101859.19;6120353;23;20088;-77
2024/03/18 09:31:03;;;;;;;6.72;3.75;;;;;;;3.99;100.00;101859.59;6119992;23;20036;-75
2024/03/18 09:33:30;;;;;;;6.35;3.30;;;;;;;4.07;100.00;101862.09;6120829;23;20009;-76
2024/03/18 09:35:55;;;;;;;8.20;4.18;;;;;;;4.11;100.00;101858.00;6145589;23;20041;-76
2024/03/18 09:38:22;;;;;;;5.45;3.35;;;;;;;4.19;100.00;101869.44;6144422;23;20021;-76
2024/03/18 09:40:49;;;;;;;13.35;3.85;;;;;;;4.27;100.00;101856.84;6145152;23;20105;-76
2024/03/18 09:43:15;;;;;;;7.65;3.50;;;;;;;4.39;100.00;101867.66;6144281;23;20017;-76
2024/03/18 09:45:42;;;;;;;7.32;3.42;;;;;;;4.33;100.00;101863.16;6120327;23;20022;-77
2024/03/18 09:48:16;;;;;;;5.85;3.15;;;;;;;4.37;100.00;101856.44;6145041;23;20006;-76
2024/03/18 09:50:42;;;;;;;6.10;3.50;;;;;;;4.40;100.00;101853.38;6095951;23;20030;-76
2024/03/18 09:53:11;;;;;;;6.10;3.38;;;;;;;4.40;100.00;101856.03;6095196;23;20014;-77
2024/03/18 09:55:37;;;;;;;6.43;3.30;;;;;;;4.45;100.00;101856.25;6145655;23;20037;-76
2024/03/18 09:58:18;;;;;;;6.28;3.80;;;;;;;4.47;100.00;101851.56;6144227;23;20021;-75
2024/03/18 10:00:45;;;;;;;7.47;2.83;;;;;;;4.45;100.00;101855.44;6171619;23;20430;-78
2024/03/18 10:03:16;;;;;;;6.47;3.63;;;;;;;4.51;100.00;101855.44;6124773;23;20023;-73
2024/03/18 10:05:42;;;;;;;5.38;3.22;;;;;;;4.62;100.00;101857.50;6150047;23;20359;-76
2024/03/18 10:08:12;;;;;;;7.93;3.95;;;;;;;4.74;100.00;101859.53;6149306;23;20465;-74
2024/03/18 10:10:38;;;;;;;7.05;3.63;;;;;;;4.81;100.00;101860.34;6149969;23;20017;-74
2024/03/18 10:13:09;;;;;;;5.53;3.17;;;;;;;4.72;100.00;101858.94;6124516;23;20045;-74
2024/03/18 10:15:40;;;;;;;6.05;3.22;;;;;;;4.74;100.00;101867.50;6100188;23;20453;-77
2024/03/18 10:18:13;;;;;;;5.97;3.35;;;;;;;4.88;100.00;101861.19;6148001;23;20016;-76
2024/03/18 10:20:39;;;;;;;5.30;3.40;;;;;;;4.92;100.00;101851.78;6149619;23;20529;-74
2024/03/18 10:23:10;;;;;;;7.07;3.47;;;;;;;4.86;100.00;101857.91;6124279;23;20758;-73
2024/03/18 10:25:37;;;;;;;6.45;3.75;;;;;;;4.93;100.00;101864.03;6149741;23;20024;-74
2024/03/18 10:28:09;;;;;;;;;;;;;;;4.86;100.00;101861.38;6172966;23;20088;-74
2024/03/18 10:30:37;;;;;;;6.97;3.47;;;;;;;4.90;100.00;101864.47;6125149;23;19912;-74
2024/03/18 10:33:05;;;;;;;6.65;3.53;;;;;;;4.88;100.00;101858.53;6123775;23;20459;-74
2024/03/18 10:35:34;;;;;;;5.70;3.50;;;;;;;5.03;100.00;101859.16;6176296;23;20012;-76
2024/03/18 10:38:03;;;;;;;6.97;3.80;;;;;;;5.09;100.00;101860.97;6149261;23;20013;-74
2024/03/18 10:40:34;;;;;;;6.45;3.20;;;;;;;5.18;100.00;101866.88;6149558;23;20039;-74
2024/03/18 10:43:06;;;;;;;5.25;3.45;;;;;;;5.22;100.00;101851.38;6175702;23;20112;-75
2024/03/18 10:45:37;;;;;;;6.25;3.50;;;;;;;5.29;100.00;101854.84;6125084;23;20071;-75
2024/03/18 10:48:10;;;;;;;6.15;3.10;;;;;;;5.30;100.00;101856.47;6149606;23;20020;-74
2024/03/18 10:50:36;;;;;;;7.13;3.72;;;;;;;5.40;100.00;101862.16;6172767;23;20013;-75
2024/03/18 10:53:03;;;;;;;7.28;3.58;;;;;;;5.42;100.00;101865.44;6148416;23;20021;-74
2024/03/18 10:55:30;;;;;;;6.43;3.90;;;;;;;5.40;100.00;101865.63;6149800;23;20021;-76
2024/03/18 10:57:59;;;;;;;5.28;3.50;;;;;;;5.46;100.00;101858.66;6125729;23;20390;-74
2024/03/18 11:00:26;;;;;;;6.47;2.95;;;;;;;5.48;100.00;101862.72;6101125;23;20825;-74
2024/03/18 11:03:03;;;;;;;5.53;3.35;;;;;;;5.57;100.00;101849.25;6150063;23;20060;-75
2024/03/18 11:05:31;;;;;;;6.22;3.38;;;;;;;5.69;100.00;101848.38;6148941;23;20009;-74
2024/03/18 11:07:59;;;;;;;5.45;3.20;;;;;;;5.65;100.00;101847.16;6172987;23;20017;-74
2024/03/18 11:10:32;;;;;;;7.78;3.03;;;;;;;5.72;100.00;101839.97;6100807;23;20025;-74
2024/03/18 11:13:11;;;;;;;7.97;3.47;;;;;;;5.83;100.00;101853.66;6147870;23;20418;-74
2024/03/18 11:15:47;;;;;;;6.32;3.22;;;;;;;5.85;100.00;101846.28;6174704;23;20013;-74
2024/03/18 11:18:20;;;;;;;6.05;3.40;;;;;;;5.89;100.00;101844.81;6147913;23;20019;-73
2024/03/18 11:20:48;;;;;;;7.47;3.42;;;;;;;6.04;100.00;101853.38;6149168;23;20023;-75
2024/03/18 11:23:16;;;;;;;6.25;3.05;;;;;;;6.15;100.00;101847.38;6148173;23;20031;-73
2024/03/18 11:25:42;;;;;;;6.50;3.03;;;;;;;6.12;100.00;101847.81;6125227;23;20013;-76
2024/03/18 11:28:07;;;;;;;5.43;2.67;;;;;;;6.22;100.00;101837.50;6147735;23;20120;-73